AAL2149 KLAX-KLAS
Flight info
| Callsign | AAL2149 |
|---|---|
| Flight time | N/A |
| Altitude | 19000 |
| Route | ORCKA5 MISEN RNDRZ4 |
| Aircraft | B738/M-VGDW/C |
Departure
| Time | 2026-04-25 22:24 |
|---|---|
| Airport | Los Angeles International Airport (KLAX) |
Arrival
| Time | N/A |
|---|---|
| Airport | Harry Reid International Airport (KLAS) |
| Time | Latitude | Longitude | Altitude | Speed | Heading |
|---|---|---|---|---|---|
| 2026-04-25 21:49 | 33.94048 | -118.40750 | 125 ft | 0 kts | 107° |
| 2026-04-25 22:07 | 33.94048 | -118.40751 | 125 ft | 2 kts | 107° |
| 2026-04-25 22:07 | 33.94050 | -118.40757 | 125 ft | 0 kts | 107° |
| 2026-04-25 22:08 | 33.94051 | -118.40763 | 125 ft | 2 kts | 107° |
| 2026-04-25 22:08 | 33.94056 | -118.40782 | 123 ft | 2 kts | 109° |
| 2026-04-25 22:08 | 33.94065 | -118.40797 | 125 ft | 2 kts | 167° |
| 2026-04-25 22:08 | 33.94082 | -118.40800 | 123 ft | 1 kts | 173° |
| 2026-04-25 22:09 | 33.94092 | -118.40801 | 124 ft | 1 kts | 173° |
| 2026-04-25 22:14 | 33.94091 | -118.40801 | 125 ft | 0 kts | 170° |
| 2026-04-25 22:14 | 33.94090 | -118.40801 | 125 ft | 0 kts | 167° |
| 2026-04-25 22:14 | 33.94088 | -118.40800 | 125 ft | 0 kts | 172° |
| 2026-04-25 22:15 | 33.94087 | -118.40801 | 125 ft | 0 kts | 177° |
| 2026-04-25 22:15 | 33.94074 | -118.40804 | 121 ft | 13 kts | 193° |
| 2026-04-25 22:16 | 33.93878 | -118.40766 | 123 ft | 14 kts | 140° |
| 2026-04-25 22:16 | 33.93821 | -118.40675 | 121 ft | 14 kts | 101° |
| 2026-04-25 22:16 | 33.93819 | -118.40563 | 125 ft | 13 kts | 85° |
| 2026-04-25 22:16 | 33.93832 | -118.40456 | 125 ft | 13 kts | 85° |
| 2026-04-25 22:17 | 33.93844 | -118.40332 | 125 ft | 17 kts | 83° |
| 2026-04-25 22:17 | 33.93880 | -118.40204 | 124 ft | 16 kts | 66° |
| 2026-04-25 22:17 | 33.93876 | -118.40071 | 125 ft | 16 kts | 92° |
| 2026-04-25 22:17 | 33.93884 | -118.39942 | 120 ft | 15 kts | 83° |
| 2026-04-25 22:18 | 33.93901 | -118.39771 | 125 ft | 27 kts | 83° |
| 2026-04-25 22:18 | 33.93928 | -118.39501 | 123 ft | 38 kts | 83° |
| 2026-04-25 22:18 | 33.93970 | -118.39169 | 123 ft | 40 kts | 75° |
| 2026-04-25 22:18 | 33.93983 | -118.38880 | 123 ft | 29 kts | 94° |
| 2026-04-25 22:19 | 33.94012 | -118.38648 | 121 ft | 27 kts | 79° |
| 2026-04-25 22:19 | 33.94027 | -118.38490 | 122 ft | 10 kts | 88° |
| 2026-04-25 22:19 | 33.94037 | -118.38398 | 125 ft | 13 kts | 82° |
| 2026-04-25 22:19 | 33.94051 | -118.38287 | 125 ft | 13 kts | 87° |
| 2026-04-25 22:20 | 33.94063 | -118.38179 | 125 ft | 13 kts | 82° |
| 2026-04-25 22:20 | 33.94101 | -118.38081 | 121 ft | 15 kts | 47° |
| 2026-04-25 22:20 | 33.94068 | -118.38008 | 124 ft | 10 kts | 166° |
| 2026-04-25 22:20 | 33.94008 | -118.38013 | 122 ft | 8 kts | 200° |
| 2026-04-25 22:21 | 33.93988 | -118.38048 | 125 ft | 4 kts | 255° |
| 2026-04-25 22:21 | 33.93984 | -118.38069 | 123 ft | 0 kts | 260° |
| 2026-04-25 22:23 | 33.93976 | -118.38134 | 123 ft | 33 kts | 262° |
| 2026-04-25 22:23 | 33.93912 | -118.38742 | 123 ft | 111 kts | 263° |
| 2026-04-25 22:23 | 33.93788 | -118.39936 | 168 ft | 172 kts | 263° |
| 2026-04-25 22:24 | 33.93696 | -118.41451 | 965 ft | 177 kts | 265° |
| 2026-04-25 22:24 | 33.93654 | -118.42822 | 2302 ft | 160 kts | 263° |
| 2026-04-25 22:24 | 33.93492 | -118.44214 | 2824 ft | 177 kts | 261° |
| 2026-04-25 22:24 | 33.93297 | -118.45790 | 2998 ft | 205 kts | 259° |
| 2026-04-25 22:25 | 33.92848 | -118.47517 | 3208 ft | 225 kts | 249° |
| 2026-04-25 22:25 | 33.92267 | -118.49257 | 3747 ft | 228 kts | 248° |
| 2026-04-25 22:25 | 33.91637 | -118.51058 | 4226 ft | 234 kts | 247° |
| 2026-04-25 22:25 | 33.90993 | -118.52854 | 4803 ft | 237 kts | 246° |
| 2026-04-25 22:26 | 33.90337 | -118.54656 | 4980 ft | 237 kts | 246° |
| 2026-04-25 22:26 | 33.89651 | -118.56565 | 4985 ft | 257 kts | 246° |
| 2026-04-25 22:26 | 33.88944 | -118.58552 | 4980 ft | 259 kts | 247° |
| 2026-04-25 22:26 | 33.88238 | -118.60557 | 5152 ft | 260 kts | 244° |
| 2026-04-25 22:27 | 33.87049 | -118.62162 | 5819 ft | 263 kts | 212° |
| 2026-04-25 22:27 | 33.85301 | -118.62882 | 5949 ft | 270 kts | 186° |
| 2026-04-25 22:27 | 33.83445 | -118.62596 | 5986 ft | 274 kts | 162° |
| 2026-04-25 22:27 | 33.81824 | -118.61379 | 6054 ft | 282 kts | 135° |
| 2026-04-25 22:28 | 33.80790 | -118.59396 | 6668 ft | 288 kts | 110° |
| 2026-04-25 22:28 | 33.80538 | -118.56983 | 7479 ft | 291 kts | 83° |
| 2026-04-25 22:28 | 33.81234 | -118.54719 | 8248 ft | 293 kts | 53° |
| 2026-04-25 22:28 | 33.82704 | -118.53005 | 8969 ft | 297 kts | 36° |
| 2026-04-25 22:29 | 33.84358 | -118.51544 | 9670 ft | 302 kts | 34° |
| 2026-04-25 22:29 | 33.86078 | -118.50058 | 10297 ft | 309 kts | 34° |
| 2026-04-25 22:29 | 33.87882 | -118.48470 | 10482 ft | 333 kts | 35° |
| 2026-04-25 22:30 | 33.91144 | -118.45533 | 10795 ft | 368 kts | 36° |